sensor_id;sensor_type;location;lat;lon;timestamp;P1;durP1;ratioP1;P2;durP2;ratioP2
27163;SDS011;14685;50.618;7.024;2023-02-04T00:00:51;17.20;;;3.65;;
27163;SDS011;14685;50.618;7.024;2023-02-04T00:03:18;17.17;;;3.78;;
27163;SDS011;14685;50.618;7.024;2023-02-04T00:05:45;19.25;;;4.20;;
27163;SDS011;14685;50.618;7.024;2023-02-04T00:08:13;21.60;;;4.47;;
27163;SDS011;14685;50.618;7.024;2023-02-04T00:10:40;19.63;;;3.78;;
27163;SDS011;14685;50.618;7.024;2023-02-04T00:13:07;18.13;;;3.75;;
27163;SDS011;14685;50.618;7.024;2023-02-04T00:15:33;19.60;;;3.92;;
27163;SDS011;14685;50.618;7.024;2023-02-04T00:18:00;18.23;;;3.60;;
27163;SDS011;14685;50.618;7.024;2023-02-04T00:20:27;13.10;;;3.50;;
27163;SDS011;14685;50.618;7.024;2023-02-04T00:22:54;17.77;;;3.17;;
27163;SDS011;14685;50.618;7.024;2023-02-04T00:25:22;18.35;;;4.50;;
27163;SDS011;14685;50.618;7.024;2023-02-04T00:27:49;13.57;;;3.25;;
27163;SDS011;14685;50.618;7.024;2023-02-04T00:30:16;19.27;;;4.53;;
27163;SDS011;14685;50.618;7.024;2023-02-04T00:32:43;17.42;;;3.80;;
27163;SDS011;14685;50.618;7.024;2023-02-04T00:35:09;12.50;;;3.20;;
27163;SDS011;14685;50.618;7.024;2023-02-04T00:37:36;17.80;;;4.03;;
27163;SDS011;14685;50.618;7.024;2023-02-04T00:40:03;16.67;;;3.45;;
27163;SDS011;14685;50.618;7.024;2023-02-04T00:42:30;13.25;;;2.88;;
27163;SDS011;14685;50.618;7.024;2023-02-04T00:44:57;16.13;;;3.20;;
27163;SDS011;14685;50.618;7.024;2023-02-04T00:47:24;14.20;;;3.40;;
27163;SDS011;14685;50.618;7.024;2023-02-04T00:49:50;16.05;;;3.10;;
27163;SDS011;14685;50.618;7.024;2023-02-04T00:52:18;15.40;;;3.17;;
27163;SDS011;14685;50.618;7.024;2023-02-04T00:54:45;11.27;;;3.13;;
27163;SDS011;14685;50.618;7.024;2023-02-04T00:57:12;14.82;;;3.38;;
27163;SDS011;14685;50.618;7.024;2023-02-04T00:59:39;11.88;;;3.38;;
27163;SDS011;14685;50.618;7.024;2023-02-04T01:02:07;18.33;;;3.92;;
27163;SDS011;14685;50.618;7.024;2023-02-04T01:04:39;13.20;;;3.28;;
27163;SDS011;14685;50.618;7.024;2023-02-04T01:07:05;19.15;;;3.38;;
27163;SDS011;14685;50.618;7.024;2023-02-04T01:09:32;14.90;;;3.90;;
27163;SDS011;14685;50.618;7.024;2023-02-04T01:12:00;14.27;;;3.22;;
27163;SDS011;14685;50.618;7.024;2023-02-04T01:14:27;15.55;;;3.03;;
27163;SDS011;14685;50.618;7.024;2023-02-04T01:16:55;13.88;;;3.35;;
27163;SDS011;14685;50.618;7.024;2023-02-04T01:19:22;11.85;;;3.25;;
27163;SDS011;14685;50.618;7.024;2023-02-04T01:21:49;16.05;;;3.38;;
27163;SDS011;14685;50.618;7.024;2023-02-04T01:24:15;11.20;;;2.85;;
27163;SDS011;14685;50.618;7.024;2023-02-04T01:26:42;18.55;;;3.25;;
27163;SDS011;14685;50.618;7.024;2023-02-04T01:29:11;12.80;;;3.22;;
27163;SDS011;14685;50.618;7.024;2023-02-04T01:31:37;16.42;;;3.60;;
27163;SDS011;14685;50.618;7.024;2023-02-04T01:34:05;9.68;;;3.53;;
27163;SDS011;14685;50.618;7.024;2023-02-04T01:36:32;14.32;;;3.50;;
27163;SDS011;14685;50.618;7.024;2023-02-04T01:39:00;19.00;;;3.22;;
27163;SDS011;14685;50.618;7.024;2023-02-04T01:41:28;12.95;;;2.50;;
27163;SDS011;14685;50.618;7.024;2023-02-04T01:43:58;10.88;;;3.00;;
27163;SDS011;14685;50.618;7.024;2023-02-04T01:46:25;13.77;;;2.90;;
27163;SDS011;14685;50.618;7.024;2023-02-04T01:48:52;15.05;;;2.97;;
27163;SDS011;14685;50.618;7.024;2023-02-04T01:51:26;13.02;;;2.70;;
27163;SDS011;14685;50.618;7.024;2023-02-04T01:53:55;17.35;;;3.20;;
27163;SDS011;14685;50.618;7.024;2023-02-04T01:56:23;18.95;;;3.47;;
27163;SDS011;14685;50.618;7.024;2023-02-04T01:58:54;17.45;;;2.90;;
27163;SDS011;14685;50.618;7.024;2023-02-04T02:03:59;14.57;;;3.15;;
27163;SDS011;14685;50.618;7.024;2023-02-04T02:06:27;11.30;;;3.55;;
27163;SDS011;14685;50.618;7.024;2023-02-04T02:08:54;14.93;;;3.05;;
27163;SDS011;14685;50.618;7.024;2023-02-04T02:11:24;16.85;;;3.42;;
27163;SDS011;14685;50.618;7.024;2023-02-04T02:13:52;14.23;;;3.15;;
27163;SDS011;14685;50.618;7.024;2023-02-04T02:16:19;12.80;;;2.90;;
27163;SDS011;14685;50.618;7.024;2023-02-04T02:18:46;17.95;;;3.65;;
27163;SDS011;14685;50.618;7.024;2023-02-04T02:21:15;10.65;;;3.20;;
27163;SDS011;14685;50.618;7.024;2023-02-04T02:23:53;15.55;;;3.55;;
27163;SDS011;14685;50.618;7.024;2023-02-04T02:26:26;12.50;;;3.42;;
27163;SDS011;14685;50.618;7.024;2023-02-04T02:28:54;11.32;;;3.17;;
27163;SDS011;14685;50.618;7.024;2023-02-04T02:31:21;19.52;;;4.22;;
27163;SDS011;14685;50.618;7.024;2023-02-04T02:33:49;19.15;;;3.88;;
27163;SDS011;14685;50.618;7.024;2023-02-04T02:36:18;16.77;;;3.88;;
27163;SDS011;14685;50.618;7.024;2023-02-04T02:38:51;11.15;;;3.30;;
27163;SDS011;14685;50.618;7.024;2023-02-04T02:41:18;14.45;;;3.70;;
27163;SDS011;14685;50.618;7.024;2023-02-04T02:43:44;16.73;;;3.95;;
27163;SDS011;14685;50.618;7.024;2023-02-04T02:46:11;14.32;;;3.20;;
27163;SDS011;14685;50.618;7.024;2023-02-04T02:48:38;11.93;;;3.75;;
27163;SDS011;14685;50.618;7.024;2023-02-04T02:51:06;16.15;;;3.78;;
27163;SDS011;14685;50.618;7.024;2023-02-04T02:53:34;12.27;;;3.25;;
27163;SDS011;14685;50.618;7.024;2023-02-04T02:56:01;16.30;;;4.00;;
27163;SDS011;14685;50.618;7.024;2023-02-04T02:58:30;15.90;;;3.50;;
27163;SDS011;14685;50.618;7.024;2023-02-04T03:01:00;25.27;;;4.88;;
27163;SDS011;14685;50.618;7.024;2023-02-04T03:03:49;14.63;;;3.40;;
27163;SDS011;14685;50.618;7.024;2023-02-04T03:06:21;17.08;;;3.95;;
27163;SDS011;14685;50.618;7.024;2023-02-04T03:08:51;16.55;;;3.60;;
27163;SDS011;14685;50.618;7.024;2023-02-04T03:11:21;17.10;;;4.43;;
27163;SDS011;14685;50.618;7.024;2023-02-04T03:13:50;20.17;;;4.63;;
27163;SDS011;14685;50.618;7.024;2023-02-04T03:16:18;17.60;;;4.65;;
27163;SDS011;14685;50.618;7.024;2023-02-04T03:18:46;18.65;;;4.60;;
27163;SDS011;14685;50.618;7.024;2023-02-04T03:21:16;21.10;;;4.35;;
27163;SDS011;14685;50.618;7.024;2023-02-04T03:23:42;16.33;;;4.13;;
27163;SDS011;14685;50.618;7.024;2023-02-04T03:26:09;16.65;;;4.32;;
27163;SDS011;14685;50.618;7.024;2023-02-04T03:28:39;13.90;;;4.13;;
27163;SDS011;14685;50.618;7.024;2023-02-04T03:31:07;11.40;;;3.88;;
27163;SDS011;14685;50.618;7.024;2023-02-04T03:33:34;17.67;;;5.10;;
27163;SDS011;14685;50.618;7.024;2023-02-04T03:36:01;13.30;;;2.95;;
27163;SDS011;14685;50.618;7.024;2023-02-04T03:38:28;17.30;;;3.60;;
27163;SDS011;14685;50.618;7.024;2023-02-04T03:40:56;12.32;;;3.38;;
27163;SDS011;14685;50.618;7.024;2023-02-04T03:43:23;16.75;;;3.65;;
27163;SDS011;14685;50.618;7.024;2023-02-04T03:45:50;12.73;;;3.15;;
27163;SDS011;14685;50.618;7.024;2023-02-04T03:48:18;20.10;;;3.25;;
27163;SDS011;14685;50.618;7.024;2023-02-04T03:50:44;16.58;;;3.13;;
27163;SDS011;14685;50.618;7.024;2023-02-04T03:53:11;16.23;;;2.92;;
27163;SDS011;14685;50.618;7.024;2023-02-04T03:55:38;12.52;;;3.30;;
27163;SDS011;14685;50.618;7.024;2023-02-04T03:58:05;15.50;;;3.20;;
27163;SDS011;14685;50.618;7.024;2023-02-04T04:00:32;14.77;;;3.83;;
27163;SDS011;14685;50.618;7.024;2023-02-04T04:03:00;17.55;;;3.97;;
27163;SDS011;14685;50.618;7.024;2023-02-04T04:05:27;13.85;;;3.45;;
27163;SDS011;14685;50.618;7.024;2023-02-04T04:07:54;12.40;;;3.53;;
27163;SDS011;14685;50.618;7.024;2023-02-04T04:10:21;17.13;;;3.83;;
27163;SDS011;14685;50.618;7.024;2023-02-04T04:12:48;15.43;;;3.95;;
27163;SDS011;14685;50.618;7.024;2023-02-04T04:15:15;13.98;;;3.88;;
27163;SDS011;14685;50.618;7.024;2023-02-04T04:17:43;14.27;;;3.47;;
27163;SDS011;14685;50.618;7.024;2023-02-04T04:20:11;10.73;;;3.00;;
27163;SDS011;14685;50.618;7.024;2023-02-04T04:22:38;16.48;;;3.45;;
27163;SDS011;14685;50.618;7.024;2023-02-04T04:25:05;13.23;;;2.97;;
27163;SDS011;14685;50.618;7.024;2023-02-04T04:27:33;18.52;;;3.28;;
27163;SDS011;14685;50.618;7.024;2023-02-04T04:29:59;17.60;;;3.50;;
27163;SDS011;14685;50.618;7.024;2023-02-04T04:32:26;15.40;;;4.18;;
27163;SDS011;14685;50.618;7.024;2023-02-04T04:34:56;16.70;;;4.07;;
27163;SDS011;14685;50.618;7.024;2023-02-04T04:37:22;15.48;;;3.53;;
27163;SDS011;14685;50.618;7.024;2023-02-04T04:39:49;14.30;;;4.22;;
27163;SDS011;14685;50.618;7.024;2023-02-04T04:42:17;19.08;;;3.53;;
27163;SDS011;14685;50.618;7.024;2023-02-04T04:44:45;13.85;;;3.88;;
27163;SDS011;14685;50.618;7.024;2023-02-04T04:47:14;18.92;;;3.88;;
27163;SDS011;14685;50.618;7.024;2023-02-04T04:49:41;12.27;;;3.13;;
27163;SDS011;14685;50.618;7.024;2023-02-04T04:52:08;13.68;;;3.22;;
27163;SDS011;14685;50.618;7.024;2023-02-04T04:54:36;17.20;;;3.58;;
27163;SDS011;14685;50.618;7.024;2023-02-04T04:57:02;19.58;;;3.63;;
27163;SDS011;14685;50.618;7.024;2023-02-04T04:59:32;16.25;;;4.75;;
27163;SDS011;14685;50.618;7.024;2023-02-04T05:01:59;13.80;;;4.18;;
27163;SDS011;14685;50.618;7.024;2023-02-04T05:04:26;19.15;;;4.07;;
27163;SDS011;14685;50.618;7.024;2023-02-04T05:06:53;18.55;;;4.55;;
27163;SDS011;14685;50.618;7.024;2023-02-04T05:09:21;13.93;;;3.55;;
27163;SDS011;14685;50.618;7.024;2023-02-04T05:11:48;15.07;;;4.53;;
27163;SDS011;14685;50.618;7.024;2023-02-04T05:14:15;13.98;;;3.70;;
27163;SDS011;14685;50.618;7.024;2023-02-04T05:16:41;13.25;;;3.88;;
27163;SDS011;14685;50.618;7.024;2023-02-04T05:19:09;19.55;;;4.03;;
27163;SDS011;14685;50.618;7.024;2023-02-04T05:21:36;14.70;;;3.80;;
27163;SDS011;14685;50.618;7.024;2023-02-04T05:24:03;17.25;;;4.32;;
27163;SDS011;14685;50.618;7.024;2023-02-04T05:26:31;16.05;;;3.70;;
27163;SDS011;14685;50.618;7.024;2023-02-04T05:28:58;15.43;;;4.38;;
27163;SDS011;14685;50.618;7.024;2023-02-04T05:31:28;15.13;;;3.92;;
27163;SDS011;14685;50.618;7.024;2023-02-04T05:33:57;14.95;;;3.70;;
27163;SDS011;14685;50.618;7.024;2023-02-04T05:36:24;13.73;;;4.43;;
27163;SDS011;14685;50.618;7.024;2023-02-04T05:38:50;19.05;;;5.15;;
27163;SDS011;14685;50.618;7.024;2023-02-04T05:41:17;14.73;;;3.55;;
27163;SDS011;14685;50.618;7.024;2023-02-04T05:43:44;18.92;;;4.15;;
27163;SDS011;14685;50.618;7.024;2023-02-04T05:46:11;18.05;;;4.30;;
27163;SDS011;14685;50.618;7.024;2023-02-04T05:48:40;21.45;;;4.53;;
27163;SDS011;14685;50.618;7.024;2023-02-04T05:51:08;15.52;;;3.90;;
27163;SDS011;14685;50.618;7.024;2023-02-04T05:53:35;18.45;;;4.25;;
27163;SDS011;14685;50.618;7.024;2023-02-04T05:56:02;13.93;;;3.88;;
27163;SDS011;14685;50.618;7.024;2023-02-04T05:58:28;15.02;;;4.20;;
27163;SDS011;14685;50.618;7.024;2023-02-04T06:01:02;17.33;;;4.25;;
27163;SDS011;14685;50.618;7.024;2023-02-04T06:03:29;18.00;;;4.32;;
27163;SDS011;14685;50.618;7.024;2023-02-04T06:05:56;14.93;;;3.72;;
27163;SDS011;14685;50.618;7.024;2023-02-04T06:08:25;18.70;;;4.68;;
27163;SDS011;14685;50.618;7.024;2023-02-04T06:10:51;16.17;;;3.88;;
27163;SDS011;14685;50.618;7.024;2023-02-04T06:13:18;22.10;;;4.82;;
27163;SDS011;14685;50.618;7.024;2023-02-04T06:15:45;17.50;;;4.45;;
27163;SDS011;14685;50.618;7.024;2023-02-04T06:18:12;18.60;;;4.82;;
27163;SDS011;14685;50.618;7.024;2023-02-04T06:20:39;18.85;;;4.60;;
27163;SDS011;14685;50.618;7.024;2023-02-04T06:23:06;19.10;;;4.95;;
27163;SDS011;14685;50.618;7.024;2023-02-04T06:25:32;19.05;;;4.55;;
27163;SDS011;14685;50.618;7.024;2023-02-04T06:28:04;18.77;;;4.35;;
27163;SDS011;14685;50.618;7.024;2023-02-04T06:30:33;19.02;;;4.90;;
27163;SDS011;14685;50.618;7.024;2023-02-04T06:33:01;17.50;;;4.95;;
27163;SDS011;14685;50.618;7.024;2023-02-04T06:35:29;16.48;;;4.60;;
27163;SDS011;14685;50.618;7.024;2023-02-04T06:37:57;19.05;;;4.75;;
27163;SDS011;14685;50.618;7.024;2023-02-04T06:40:24;14.30;;;4.47;;
27163;SDS011;14685;50.618;7.024;2023-02-04T06:42:52;21.63;;;4.53;;
27163;SDS011;14685;50.618;7.024;2023-02-04T06:45:19;15.52;;;5.50;;
27163;SDS011;14685;50.618;7.024;2023-02-04T06:47:46;17.52;;;4.80;;
27163;SDS011;14685;50.618;7.024;2023-02-04T06:50:13;19.00;;;5.25;;
27163;SDS011;14685;50.618;7.024;2023-02-04T06:52:44;13.52;;;4.95;;
27163;SDS011;14685;50.618;7.024;2023-02-04T06:55:14;20.15;;;4.38;;
27163;SDS011;14685;50.618;7.024;2023-02-04T06:57:42;17.83;;;4.88;;
27163;SDS011;14685;50.618;7.024;2023-02-04T07:00:10;16.00;;;5.10;;
27163;SDS011;14685;50.618;7.024;2023-02-04T07:02:40;20.33;;;5.30;;
27163;SDS011;14685;50.618;7.024;2023-02-04T07:05:07;15.13;;;4.80;;
27163;SDS011;14685;50.618;7.024;2023-02-04T07:07:34;17.20;;;5.65;;
27163;SDS011;14685;50.618;7.024;2023-02-04T07:10:01;17.88;;;4.95;;
27163;SDS011;14685;50.618;7.024;2023-02-04T07:12:29;16.27;;;4.68;;
27163;SDS011;14685;50.618;7.024;2023-02-04T07:14:56;18.88;;;5.25;;
27163;SDS011;14685;50.618;7.024;2023-02-04T07:17:24;11.13;;;4.35;;
27163;SDS011;14685;50.618;7.024;2023-02-04T07:19:53;21.08;;;5.40;;
27163;SDS011;14685;50.618;7.024;2023-02-04T07:22:22;17.05;;;5.30;;
27163;SDS011;14685;50.618;7.024;2023-02-04T07:24:49;25.25;;;5.10;;
27163;SDS011;14685;50.618;7.024;2023-02-04T07:27:16;15.57;;;4.57;;
27163;SDS011;14685;50.618;7.024;2023-02-04T07:29:43;15.65;;;4.97;;
27163;SDS011;14685;50.618;7.024;2023-02-04T07:32:10;19.40;;;4.95;;
27163;SDS011;14685;50.618;7.024;2023-02-04T07:34:37;21.58;;;5.10;;
27163;SDS011;14685;50.618;7.024;2023-02-04T07:37:06;19.95;;;5.35;;
27163;SDS011;14685;50.618;7.024;2023-02-04T07:39:34;15.63;;;4.55;;
27163;SDS011;14685;50.618;7.024;2023-02-04T07:42:00;17.70;;;5.05;;
27163;SDS011;14685;50.618;7.024;2023-02-04T07:44:30;16.55;;;5.63;;
27163;SDS011;14685;50.618;7.024;2023-02-04T07:46:56;24.63;;;6.35;;
27163;SDS011;14685;50.618;7.024;2023-02-04T07:49:25;19.00;;;5.28;;
27163;SDS011;14685;50.618;7.024;2023-02-04T07:51:53;18.98;;;5.03;;
27163;SDS011;14685;50.618;7.024;2023-02-04T07:54:20;17.63;;;5.28;;
27163;SDS011;14685;50.618;7.024;2023-02-04T07:56:47;23.60;;;5.80;;
27163;SDS011;14685;50.618;7.024;2023-02-04T07:59:14;11.35;;;5.00;;
27163;SDS011;14685;50.618;7.024;2023-02-04T08:01:40;17.10;;;5.57;;
27163;SDS011;14685;50.618;7.024;2023-02-04T08:04:07;23.20;;;5.88;;
27163;SDS011;14685;50.618;7.024;2023-02-04T08:06:34;20.60;;;5.38;;
27163;SDS011;14685;50.618;7.024;2023-02-04T08:09:01;16.63;;;5.57;;
27163;SDS011;14685;50.618;7.024;2023-02-04T08:11:28;20.35;;;6.32;;
27163;SDS011;14685;50.618;7.024;2023-02-04T08:13:56;19.67;;;5.32;;
27163;SDS011;14685;50.618;7.024;2023-02-04T08:16:22;18.60;;;6.53;;
27163;SDS011;14685;50.618;7.024;2023-02-04T08:18:51;20.70;;;7.32;;
27163;SDS011;14685;50.618;7.024;2023-02-04T08:21:17;23.83;;;6.85;;
27163;SDS011;14685;50.618;7.024;2023-02-04T08:23:46;23.50;;;6.47;;
27163;SDS011;14685;50.618;7.024;2023-02-04T08:26:14;19.98;;;5.75;;
27163;SDS011;14685;50.618;7.024;2023-02-04T08:28:40;25.98;;;6.25;;
27163;SDS011;14685;50.618;7.024;2023-02-04T08:31:08;23.25;;;6.30;;
27163;SDS011;14685;50.618;7.024;2023-02-04T08:33:38;29.38;;;6.07;;
27163;SDS011;14685;50.618;7.024;2023-02-04T08:36:05;26.05;;;6.35;;
27163;SDS011;14685;50.618;7.024;2023-02-04T08:38:32;24.90;;;6.47;;
27163;SDS011;14685;50.618;7.024;2023-02-04T08:40:59;19.98;;;6.85;;
27163;SDS011;14685;50.618;7.024;2023-02-04T08:43:27;19.55;;;6.25;;
27163;SDS011;14685;50.618;7.024;2023-02-04T08:45:53;24.92;;;6.97;;
27163;SDS011;14685;50.618;7.024;2023-02-04T08:48:20;22.05;;;7.13;;
27163;SDS011;14685;50.618;7.024;2023-02-04T08:50:47;24.20;;;6.53;;
27163;SDS011;14685;50.618;7.024;2023-02-04T08:53:14;22.17;;;7.55;;
27163;SDS011;14685;50.618;7.024;2023-02-04T08:55:40;24.00;;;8.15;;
27163;SDS011;14685;50.618;7.024;2023-02-04T08:58:09;26.30;;;7.85;;
27163;SDS011;14685;50.618;7.024;2023-02-04T09:00:36;28.23;;;7.95;;
27163;SDS011;14685;50.618;7.024;2023-02-04T09:03:06;20.25;;;7.03;;
27163;SDS011;14685;50.618;7.024;2023-02-04T09:05:33;28.63;;;6.90;;
27163;SDS011;14685;50.618;7.024;2023-02-04T09:08:00;25.25;;;7.20;;
27163;SDS011;14685;50.618;7.024;2023-02-04T09:10:28;31.75;;;7.97;;
27163;SDS011;14685;50.618;7.024;2023-02-04T09:12:56;25.00;;;6.82;;
27163;SDS011;14685;50.618;7.024;2023-02-04T09:15:23;26.23;;;7.38;;
27163;SDS011;14685;50.618;7.024;2023-02-04T09:17:50;30.85;;;8.60;;
27163;SDS011;14685;50.618;7.024;2023-02-04T09:20:20;25.17;;;7.15;;
27163;SDS011;14685;50.618;7.024;2023-02-04T09:22:47;28.38;;;7.65;;
27163;SDS011;14685;50.618;7.024;2023-02-04T09:25:15;23.00;;;9.05;;
27163;SDS011;14685;50.618;7.024;2023-02-04T09:27:42;36.92;;;9.05;;
27163;SDS011;14685;50.618;7.024;2023-02-04T09:30:11;27.27;;;9.15;;
27163;SDS011;14685;50.618;7.024;2023-02-04T09:32:40;40.38;;;10.60;;
27163;SDS011;14685;50.618;7.024;2023-02-04T09:35:07;27.15;;;8.32;;
27163;SDS011;14685;50.618;7.024;2023-02-04T09:37:36;32.83;;;9.18;;
27163;SDS011;14685;50.618;7.024;2023-02-04T09:40:03;28.33;;;8.20;;
27163;SDS011;14685;50.618;7.024;2023-02-04T09:42:30;35.88;;;10.60;;
27163;SDS011;14685;50.618;7.024;2023-02-04T09:44:57;28.52;;;10.07;;
27163;SDS011;14685;50.618;7.024;2023-02-04T09:47:28;37.75;;;10.13;;
27163;SDS011;14685;50.618;7.024;2023-02-04T09:49:56;22.52;;;8.25;;
27163;SDS011;14685;50.618;7.024;2023-02-04T09:52:23;33.25;;;10.50;;
27163;SDS011;14685;50.618;7.024;2023-02-04T09:54:53;34.55;;;10.02;;
27163;SDS011;14685;50.618;7.024;2023-02-04T09:57:20;39.67;;;10.77;;
27163;SDS011;14685;50.618;7.024;2023-02-04T09:59:48;20.73;;;7.25;;
27163;SDS011;14685;50.618;7.024;2023-02-04T10:02:23;19.70;;;6.57;;
27163;SDS011;14685;50.618;7.024;2023-02-04T10:04:53;30.00;;;10.23;;
27163;SDS011;14685;50.618;7.024;2023-02-04T10:07:23;35.92;;;11.80;;
27163;SDS011;14685;50.618;7.024;2023-02-04T10:09:52;37.10;;;11.27;;
27163;SDS011;14685;50.618;7.024;2023-02-04T10:12:19;34.03;;;11.50;;
27163;SDS011;14685;50.618;7.024;2023-02-04T10:14:47;32.45;;;11.60;;
27163;SDS011;14685;50.618;7.024;2023-02-04T10:17:19;39.53;;;10.85;;
27163;SDS011;14685;50.618;7.024;2023-02-04T10:19:47;31.23;;;9.40;;
27163;SDS011;14685;50.618;7.024;2023-02-04T10:22:15;33.40;;;11.13;;
27163;SDS011;14685;50.618;7.024;2023-02-04T10:24:45;44.25;;;12.80;;
27163;SDS011;14685;50.618;7.024;2023-02-04T10:27:12;37.60;;;12.88;;
27163;SDS011;14685;50.618;7.024;2023-02-04T10:29:54;29.73;;;12.35;;
27163;SDS011;14685;50.618;7.024;2023-02-04T10:32:30;40.85;;;12.45;;
27163;SDS011;14685;50.618;7.024;2023-02-04T10:34:59;38.95;;;12.07;;
27163;SDS011;14685;50.618;7.024;2023-02-04T10:37:27;32.58;;;10.63;;
27163;SDS011;14685;50.618;7.024;2023-02-04T10:39:56;34.53;;;12.40;;
27163;SDS011;14685;50.618;7.024;2023-02-04T10:42:27;32.28;;;11.77;;
27163;SDS011;14685;50.618;7.024;2023-02-04T10:44:55;32.78;;;12.10;;
27163;SDS011;14685;50.618;7.024;2023-02-04T10:47:23;45.30;;;12.70;;
27163;SDS011;14685;50.618;7.024;2023-02-04T10:49:55;35.95;;;12.82;;
27163;SDS011;14685;50.618;7.024;2023-02-04T10:52:50;37.92;;;14.23;;
27163;SDS011;14685;50.618;7.024;2023-02-04T10:55:43;40.40;;;14.00;;
27163;SDS011;14685;50.618;7.024;2023-02-04T10:58:13;36.80;;;13.80;;
27163;SDS011;14685;50.618;7.024;2023-02-04T11:00:45;44.78;;;14.63;;
27163;SDS011;14685;50.618;7.024;2023-02-04T11:03:15;45.25;;;14.23;;
27163;SDS011;14685;50.618;7.024;2023-02-04T11:05:48;43.17;;;14.07;;
27163;SDS011;14685;50.618;7.024;2023-02-04T11:08:23;39.65;;;14.27;;
27163;SDS011;14685;50.618;7.024;2023-02-04T11:10:54;33.92;;;12.40;;
27163;SDS011;14685;50.618;7.024;2023-02-04T11:13:25;36.78;;;13.20;;
27163;SDS011;14685;50.618;7.024;2023-02-04T11:18:48;39.95;;;13.25;;
27163;SDS011;14685;50.618;7.024;2023-02-04T11:21:27;35.13;;;12.68;;
27163;SDS011;14685;50.618;7.024;2023-02-04T11:26:40;45.58;;;13.77;;
27163;SDS011;14685;50.618;7.024;2023-02-04T11:42:04;32.15;;;11.18;;
27163;SDS011;14685;50.618;7.024;2023-02-04T11:44:39;30.52;;;10.82;;
27163;SDS011;14685;50.618;7.024;2023-02-04T11:47:06;32.38;;;10.25;;
27163;SDS011;14685;50.618;7.024;2023-02-04T11:49:35;41.80;;;11.43;;
27163;SDS011;14685;50.618;7.024;2023-02-04T11:52:05;38.65;;;10.15;;
27163;SDS011;14685;50.618;7.024;2023-02-04T11:54:38;29.80;;;9.82;;
27163;SDS011;14685;50.618;7.024;2023-02-04T11:57:05;34.83;;;10.43;;
27163;SDS011;14685;50.618;7.024;2023-02-04T11:59:36;33.45;;;10.88;;
27163;SDS011;14685;50.618;7.024;2023-02-04T12:02:15;41.05;;;12.27;;
27163;SDS011;14685;50.618;7.024;2023-02-04T12:04:54;34.33;;;10.52;;
27163;SDS011;14685;50.618;7.024;2023-02-04T12:07:24;32.90;;;8.20;;
27163;SDS011;14685;50.618;7.024;2023-02-04T12:09:56;28.25;;;7.28;;
27163;SDS011;14685;50.618;7.024;2023-02-04T12:12:27;25.88;;;7.05;;
27163;SDS011;14685;50.618;7.024;2023-02-04T12:14:57;32.15;;;7.38;;
27163;SDS011;14685;50.618;7.024;2023-02-04T12:17:28;36.90;;;8.55;;
27163;SDS011;14685;50.618;7.024;2023-02-04T12:19:55;33.22;;;8.90;;
27163;SDS011;14685;50.618;7.024;2023-02-04T12:22:22;34.78;;;8.80;;
27163;SDS011;14685;50.618;7.024;2023-02-04T12:24:49;35.35;;;9.75;;
27163;SDS011;14685;50.618;7.024;2023-02-04T12:27:17;28.35;;;9.18;;
27163;SDS011;14685;50.618;7.024;2023-02-04T12:29:46;40.58;;;10.77;;
27163;SDS011;14685;50.618;7.024;2023-02-04T12:32:13;35.95;;;9.32;;
27163;SDS011;14685;50.618;7.024;2023-02-04T12:34:42;27.52;;;9.35;;
27163;SDS011;14685;50.618;7.024;2023-02-04T12:37:09;29.55;;;8.85;;
27163;SDS011;14685;50.618;7.024;2023-02-04T12:39:36;30.92;;;8.82;;
27163;SDS011;14685;50.618;7.024;2023-02-04T12:42:03;27.95;;;10.02;;
27163;SDS011;14685;50.618;7.024;2023-02-04T12:44:31;29.25;;;10.00;;
27163;SDS011;14685;50.618;7.024;2023-02-04T12:47:00;24.20;;;9.10;;
27163;SDS011;14685;50.618;7.024;2023-02-04T12:49:27;24.00;;;8.90;;
27163;SDS011;14685;50.618;7.024;2023-02-04T12:51:53;25.98;;;8.27;;
27163;SDS011;14685;50.618;7.024;2023-02-04T12:54:24;29.63;;;7.28;;
27163;SDS011;14685;50.618;7.024;2023-02-04T12:56:52;29.50;;;7.97;;
27163;SDS011;14685;50.618;7.024;2023-02-04T12:59:23;25.70;;;7.80;;
27163;SDS011;14685;50.618;7.024;2023-02-04T13:01:51;29.67;;;7.75;;
27163;SDS011;14685;50.618;7.024;2023-02-04T13:04:19;31.52;;;8.93;;
27163;SDS011;14685;50.618;7.024;2023-02-04T13:06:46;30.10;;;7.85;;
27163;SDS011;14685;50.618;7.024;2023-02-04T13:09:13;28.55;;;7.63;;
27163;SDS011;14685;50.618;7.024;2023-02-04T13:11:39;31.90;;;7.35;;
27163;SDS011;14685;50.618;7.024;2023-02-04T13:14:10;31.50;;;8.52;;
27163;SDS011;14685;50.618;7.024;2023-02-04T13:16:48;25.73;;;7.55;;
27163;SDS011;14685;50.618;7.024;2023-02-04T13:19:17;26.20;;;7.43;;
27163;SDS011;14685;50.618;7.024;2023-02-04T13:21:43;30.27;;;7.03;;
27163;SDS011;14685;50.618;7.024;2023-02-04T13:24:10;28.17;;;7.63;;
27163;SDS011;14685;50.618;7.024;2023-02-04T13:26:37;23.98;;;8.07;;
27163;SDS011;14685;50.618;7.024;2023-02-04T13:29:04;25.00;;;8.20;;
27163;SDS011;14685;50.618;7.024;2023-02-04T13:31:31;35.70;;;8.70;;
27163;SDS011;14685;50.618;7.024;2023-02-04T13:33:59;25.85;;;8.60;;
27163;SDS011;14685;50.618;7.024;2023-02-04T13:36:27;24.90;;;8.02;;
27163;SDS011;14685;50.618;7.024;2023-02-04T13:38:55;24.42;;;7.88;;
27163;SDS011;14685;50.618;7.024;2023-02-04T13:41:27;28.60;;;9.07;;
27163;SDS011;14685;50.618;7.024;2023-02-04T13:43:54;25.00;;;8.45;;
27163;SDS011;14685;50.618;7.024;2023-02-04T13:46:22;29.80;;;8.60;;
27163;SDS011;14685;50.618;7.024;2023-02-04T13:48:51;25.40;;;7.45;;
27163;SDS011;14685;50.618;7.024;2023-02-04T13:51:20;23.65;;;8.75;;
27163;SDS011;14685;50.618;7.024;2023-02-04T13:53:47;26.65;;;8.35;;
27163;SDS011;14685;50.618;7.024;2023-02-04T13:56:14;26.35;;;7.32;;
27163;SDS011;14685;50.618;7.024;2023-02-04T13:58:44;24.40;;;6.65;;
27163;SDS011;14685;50.618;7.024;2023-02-04T14:01:25;25.45;;;6.90;;
27163;SDS011;14685;50.618;7.024;2023-02-04T14:03:52;20.52;;;6.68;;
27163;SDS011;14685;50.618;7.024;2023-02-04T14:06:19;26.88;;;6.88;;
27163;SDS011;14685;50.618;7.024;2023-02-04T14:08:47;24.88;;;6.90;;
27163;SDS011;14685;50.618;7.024;2023-02-04T14:11:14;25.55;;;6.72;;
27163;SDS011;14685;50.618;7.024;2023-02-04T14:13:44;22.73;;;5.85;;
27163;SDS011;14685;50.618;7.024;2023-02-04T14:16:14;24.02;;;6.40;;
27163;SDS011;14685;50.618;7.024;2023-02-04T14:18:41;23.13;;;7.10;;
27163;SDS011;14685;50.618;7.024;2023-02-04T14:21:09;27.63;;;6.65;;
27163;SDS011;14685;50.618;7.024;2023-02-04T14:23:41;23.02;;;7.28;;
27163;SDS011;14685;50.618;7.024;2023-02-04T14:26:08;25.95;;;7.82;;
27163;SDS011;14685;50.618;7.024;2023-02-04T14:28:36;27.65;;;7.72;;
27163;SDS011;14685;50.618;7.024;2023-02-04T14:31:09;24.80;;;7.05;;
27163;SDS011;14685;50.618;7.024;2023-02-04T14:33:36;26.65;;;6.70;;
27163;SDS011;14685;50.618;7.024;2023-02-04T14:36:05;23.08;;;7.47;;
27163;SDS011;14685;50.618;7.024;2023-02-04T14:38:32;21.88;;;7.57;;
27163;SDS011;14685;50.618;7.024;2023-02-04T14:40:59;17.20;;;7.53;;
27163;SDS011;14685;50.618;7.024;2023-02-04T14:43:29;24.20;;;7.55;;
27163;SDS011;14685;50.618;7.024;2023-02-04T14:46:03;19.23;;;7.17;;
27163;SDS011;14685;50.618;7.024;2023-02-04T14:48:31;24.52;;;7.35;;
27163;SDS011;14685;50.618;7.024;2023-02-04T14:50:58;18.90;;;7.30;;
27163;SDS011;14685;50.618;7.024;2023-02-04T14:53:26;19.77;;;6.93;;
27163;SDS011;14685;50.618;7.024;2023-02-04T14:55:55;22.45;;;7.43;;
27163;SDS011;14685;50.618;7.024;2023-02-04T14:58:22;23.33;;;7.18;;
27163;SDS011;14685;50.618;7.024;2023-02-04T15:00:53;27.20;;;6.90;;